createdAt,value
2017-10-14T00:00:29.545Z,101987.90
2017-10-14T00:02:57.044Z,101988.09
2017-10-14T00:05:24.572Z,101991.42
2017-10-14T00:07:52.125Z,101990.25
2017-10-14T00:10:19.685Z,101991.69
2017-10-14T00:12:47.195Z,101992.96
2017-10-14T00:15:14.823Z,101990.03
2017-10-14T00:17:42.315Z,101996.61
2017-10-14T00:20:09.806Z,101996.50
2017-10-14T00:22:37.412Z,101993.77
2017-10-14T00:25:04.941Z,101997.05
2017-10-14T00:27:32.522Z,102000.94
2017-10-14T00:30:00.017Z,102009.83
2017-10-14T00:32:27.566Z,102005.25
2017-10-14T00:34:55.064Z,102002.09
2017-10-14T00:37:22.651Z,101996.13
2017-10-14T00:39:50.242Z,101991.55
2017-10-14T00:42:17.738Z,101995.95
2017-10-14T00:44:45.228Z,101994.41
2017-10-14T00:47:12.758Z,101992.59
2017-10-14T00:49:40.314Z,101998.88
2017-10-14T00:52:07.806Z,101992.45
2017-10-14T00:54:35.299Z,101987.44
2017-10-14T00:57:02.848Z,101989.10
2017-10-14T00:59:30.379Z,101994.73
2017-10-14T01:01:57.875Z,101993.88
2017-10-14T01:04:25.409Z,101995.87
2017-10-14T01:06:52.962Z,101995.87
2017-10-14T01:09:20.456Z,101997.42
2017-10-14T01:11:47.998Z,101995.53
2017-10-14T01:14:15.488Z,101996.04
2017-10-14T01:16:43.089Z,101996.13
2017-10-14T01:19:10.640Z,101997.61
2017-10-14T01:21:38.132Z,101987.55
2017-10-14T01:24:05.668Z,101986.89
2017-10-14T01:26:33.230Z,101980.03
2017-10-14T01:29:00.723Z,101977.30
2017-10-14T01:31:28.243Z,101971.50
2017-10-14T01:33:55.801Z,101972.88
2017-10-14T01:36:23.300Z,101972.23
2017-10-14T01:38:50.803Z,101974.99
2017-10-14T01:41:18.324Z,101974.22
2017-10-14T01:43:45.844Z,101977.39
2017-10-14T01:46:13.410Z,101974.34
2017-10-14T01:48:40.907Z,101973.16
2017-10-14T01:51:08.411Z,101971.59
2017-10-14T01:53:35.950Z,101971.80
2017-10-14T01:56:03.507Z,101968.42
2017-10-14T01:58:31.012Z,101971.36
2017-10-14T02:00:58.551Z,101970.95
2017-10-14T02:03:26.045Z,101970.50
2017-10-14T02:05:53.560Z,101974.80
2017-10-14T02:08:21.084Z,101968.48
2017-10-14T02:10:48.620Z,101966.05
2017-10-14T02:13:16.117Z,101962.63
2017-10-14T02:15:43.613Z,101960.84
2017-10-14T02:18:11.251Z,101963.78
2017-10-14T02:20:38.808Z,101958.38
2017-10-14T02:23:06.292Z,101956.73
2017-10-14T02:25:33.932Z,101967.39
2017-10-14T02:28:01.432Z,101962.35
2017-10-14T02:30:28.926Z,101962.77
2017-10-14T02:32:56.474Z,101964.33
2017-10-14T02:35:23.976Z,101960.33
2017-10-14T02:37:51.491Z,101961.98
2017-10-14T02:40:19.026Z,101960.83
2017-10-14T02:42:46.512Z,101949.60
2017-10-14T02:45:14.052Z,101960.47
2017-10-14T02:47:41.545Z,101956.05
2017-10-14T02:50:09.119Z,101954.77
2017-10-14T02:52:36.639Z,101961.05
2017-10-14T02:55:04.178Z,101952.75
2017-10-14T02:57:31.678Z,101958.16
2017-10-14T02:59:59.175Z,101959.64
2017-10-14T03:02:26.712Z,101962.34
2017-10-14T03:04:54.249Z,101963.48
2017-10-14T03:07:21.743Z,101962.72
2017-10-14T03:09:49.233Z,101965.35
2017-10-14T03:12:16.790Z,101959.23
2017-10-14T03:14:44.284Z,101960.61
2017-10-14T03:17:11.783Z,101963.13
2017-10-14T03:19:39.331Z,101960.80
2017-10-14T03:22:06.825Z,101960.39
2017-10-14T03:24:34.318Z,101958.91
2017-10-14T03:27:01.891Z,101954.20
2017-10-14T03:29:29.383Z,101953.66
2017-10-14T03:31:56.877Z,101958.48
2017-10-14T03:34:24.460Z,101956.17
2017-10-14T03:36:52.019Z,101952.59
2017-10-14T03:39:19.512Z,101946.62
2017-10-14T03:44:20.872Z,101951.02
2017-10-14T03:46:48.510Z,101945.68
2017-10-14T03:49:16.010Z,101946.17
2017-10-14T03:51:43.504Z,101945.84
2017-10-14T03:54:11.066Z,101942.05
2017-10-14T03:56:38.562Z,101942.45
2017-10-14T03:59:06.055Z,101946.88
2017-10-14T04:01:33.598Z,101952.09
2017-10-14T04:04:01.092Z,101944.35
2017-10-14T04:06:28.590Z,101941.63
2017-10-14T04:08:56.241Z,101955.77
2017-10-14T04:11:23.737Z,101956.80
2017-10-14T04:13:51.237Z,101952.20
2017-10-14T04:16:18.782Z,101951.46
2017-10-14T04:18:46.281Z,101947.66
2017-10-14T04:21:13.831Z,101951.34
2017-10-14T04:23:41.388Z,101949.64
2017-10-14T04:26:08.953Z,101944.19
2017-10-14T04:28:36.448Z,101943.36
2017-10-14T04:31:03.977Z,101948.40
2017-10-14T04:33:31.471Z,101944.72
2017-10-14T04:35:59.021Z,101950.38
2017-10-14T04:38:26.508Z,101941.86
2017-10-14T04:40:54.014Z,101944.77
2017-10-14T04:43:21.543Z,101944.02
2017-10-14T04:45:49.053Z,101948.19
2017-10-14T04:48:16.565Z,101948.92
2017-10-14T04:50:44.125Z,101944.83
2017-10-14T04:53:11.627Z,101946.73
2017-10-14T04:55:39.153Z,101946.31
2017-10-14T04:58:06.728Z,101945.66
2017-10-14T05:00:34.263Z,101950.36
2017-10-14T05:03:01.756Z,101950.78
2017-10-14T05:05:29.250Z,101952.47
2017-10-14T05:07:56.860Z,101951.19
2017-10-14T05:10:24.351Z,101947.52
2017-10-14T05:12:51.842Z,101937.67
2017-10-14T05:15:19.719Z,101938.21
2017-10-14T05:17:47.210Z,101929.08
2017-10-14T05:20:14.712Z,101930.02
2017-10-14T05:22:42.318Z,101919.20
2017-10-14T05:25:09.862Z,101921.64
2017-10-14T05:27:37.438Z,101921.34
2017-10-14T05:30:04.965Z,101915.57
2017-10-14T05:32:32.490Z,101920.20
2017-10-14T05:34:59.987Z,101922.17
2017-10-14T05:37:27.548Z,101926.34
2017-10-14T05:39:55.049Z,101925.02
2017-10-14T05:42:22.593Z,101926.88
2017-10-14T05:44:50.099Z,101932.06
2017-10-14T05:47:17.683Z,101930.69
2017-10-14T05:49:45.235Z,101933.49
2017-10-14T05:52:12.816Z,101933.38
2017-10-14T05:54:40.313Z,101937.00
2017-10-14T05:57:07.840Z,101939.55
2017-10-14T05:59:35.334Z,101937.02
2017-10-14T06:02:02.833Z,101927.12
2017-10-14T06:04:30.503Z,101934.66
2017-10-14T06:06:58.064Z,101935.61
2017-10-14T06:09:25.616Z,101931.30
2017-10-14T06:11:53.156Z,101931.08
2017-10-14T06:14:20.659Z,101929.47
2017-10-14T06:16:48.215Z,101930.30
2017-10-14T06:19:15.756Z,101936.30
2017-10-14T06:21:43.253Z,101938.20
2017-10-14T06:24:10.891Z,101942.17
2017-10-14T06:26:38.388Z,101943.00
2017-10-14T06:29:05.987Z,101937.03
2017-10-14T06:31:33.523Z,101939.01
2017-10-14T06:34:01.022Z,101942.52
2017-10-14T06:36:28.512Z,101945.73
2017-10-14T06:38:56.056Z,101947.42
2017-10-14T06:41:23.547Z,101937.94
2017-10-14T06:43:51.056Z,101941.98
2017-10-14T06:46:18.607Z,101946.69
2017-10-14T06:48:46.160Z,101946.95
2017-10-14T06:51:13.666Z,101939.98
2017-10-14T06:53:41.166Z,101946.84
2017-10-14T06:56:08.715Z,101951.27
2017-10-14T06:58:36.201Z,101954.29
2017-10-14T07:01:03.698Z,101948.96
2017-10-14T07:03:31.240Z,101948.52
2017-10-14T07:05:58.730Z,101940.69
2017-10-14T07:08:26.228Z,101948.48
2017-10-14T07:10:53.788Z,101949.82
2017-10-14T07:13:21.341Z,101950.78
2017-10-14T07:15:48.903Z,101951.23
2017-10-14T07:18:16.482Z,101951.84
2017-10-14T07:20:43.983Z,101948.61
2017-10-14T07:23:11.474Z,101956.41
2017-10-14T07:25:39.018Z,101953.61
2017-10-14T07:28:06.514Z,101953.25
2017-10-14T07:30:34.016Z,101950.48
2017-10-14T07:33:01.574Z,101945.55
2017-10-14T07:35:29.072Z,101945.87
2017-10-14T07:37:56.565Z,101943.38
2017-10-14T07:40:24.196Z,101953.59
2017-10-14T07:42:51.698Z,101954.80
2017-10-14T07:45:19.187Z,101962.56
2017-10-14T07:47:46.760Z,101963.77
2017-10-14T07:50:14.252Z,101963.95
2017-10-14T07:52:41.767Z,101965.92
2017-10-14T07:55:09.328Z,101966.00
2017-10-14T07:57:36.822Z,101963.20
2017-10-14T08:00:04.317Z,101964.26
2017-10-14T08:02:31.851Z,101963.27
2017-10-14T08:04:59.345Z,101960.69
2017-10-14T08:07:26.837Z,101968.56
2017-10-14T08:09:54.370Z,101960.45
2017-10-14T08:12:21.862Z,101959.97
2017-10-14T08:14:49.347Z,101963.73
2017-10-14T08:17:16.963Z,101963.63
2017-10-14T08:19:44.450Z,101960.97
2017-10-14T08:22:12.000Z,101966.18
2017-10-14T08:24:39.559Z,101961.25
2017-10-14T08:27:07.048Z,101966.87
2017-10-14T08:29:34.542Z,101966.27
2017-10-14T08:32:02.088Z,101968.36
2017-10-14T08:34:29.588Z,101973.86
2017-10-14T08:36:57.091Z,101973.41
2017-10-14T08:39:24.641Z,101974.67
2017-10-14T08:41:52.131Z,101977.79
2017-10-14T08:44:19.672Z,101977.02
2017-10-14T08:46:47.205Z,101981.98
2017-10-14T08:49:14.712Z,101985.08
2017-10-14T08:51:42.286Z,101978.55
2017-10-14T08:54:09.784Z,101983.14
2017-10-14T08:56:37.291Z,101992.25
2017-10-14T08:59:04.855Z,101993.73
2017-10-14T09:01:32.352Z,101990.05
2017-10-14T09:03:59.848Z,101990.98
2017-10-14T09:06:27.394Z,101996.44
2017-10-14T09:08:54.897Z,101999.03
2017-10-14T09:11:22.402Z,101999.87
2017-10-14T09:13:49.924Z,101995.20
2017-10-14T09:16:17.422Z,101992.60
2017-10-14T09:18:44.968Z,101986.29
2017-10-14T09:21:12.492Z,101990.27
2017-10-14T09:23:39.987Z,101992.33
2017-10-14T09:26:07.513Z,101996.75
2017-10-14T09:28:35.062Z,101994.38
2017-10-14T09:31:02.556Z,101996.23
2017-10-14T09:33:30.078Z,102000.53
2017-10-14T09:35:57.600Z,102002.95
2017-10-14T09:38:25.197Z,101998.05
2017-10-14T09:40:52.696Z,102001.21
2017-10-14T09:43:20.204Z,101999.91
2017-10-14T09:45:47.753Z,101997.25
2017-10-14T09:48:15.348Z,101994.47
2017-10-14T09:50:42.847Z,101998.58
2017-10-14T09:53:10.394Z,101999.08
2017-10-14T09:55:37.895Z,101996.48
2017-10-14T09:58:05.400Z,101999.41
2017-10-14T10:00:32.937Z,101998.26
2017-10-14T10:03:00.428Z,102000.69
2017-10-14T10:05:27.915Z,101996.89
2017-10-14T10:07:55.503Z,101996.48
2017-10-14T10:10:23.004Z,102003.34
2017-10-14T10:12:50.516Z,101996.80
2017-10-14T10:15:18.057Z,102002.11
2017-10-14T10:17:45.628Z,101995.07
2017-10-14T10:20:13.124Z,102006.89
2017-10-14T10:22:40.644Z,101996.66
2017-10-14T10:25:08.202Z,101998.91
2017-10-14T10:27:35.697Z,101993.46
2017-10-14T10:30:03.195Z,102004.02
2017-10-14T10:32:30.720Z,101997.05
2017-10-14T10:34:58.213Z,101996.68
2017-10-14T10:37:25.795Z,101997.88
2017-10-14T10:42:27.172Z,101988.94
2017-10-14T10:44:54.669Z,101999.51
2017-10-14T10:47:22.179Z,101995.89
2017-10-14T10:49:49.723Z,102003.63
2017-10-14T10:52:17.220Z,101993.38
2017-10-14T10:54:44.716Z,101994.83
2017-10-14T10:57:12.258Z,101991.45
2017-10-14T10:59:39.769Z,101988.06
2017-10-14T11:02:07.285Z,101990.39
2017-10-14T11:04:34.896Z,101986.94
2017-10-14T11:07:02.477Z,101982.56
2017-10-14T11:09:29.968Z,101984.12
2017-10-14T11:11:57.490Z,101982.58
2017-10-14T11:14:25.032Z,101977.05
2017-10-14T11:16:52.585Z,101981.48
2017-10-14T11:19:20.624Z,101986.08
2017-10-14T11:21:48.149Z,101977.44
2017-10-14T11:24:15.653Z,101981.32
2017-10-14T11:26:43.196Z,101981.80
2017-10-14T11:29:10.714Z,101979.44
2017-10-14T11:31:38.246Z,101980.59
2017-10-14T11:34:05.815Z,101979.31
2017-10-14T11:36:33.308Z,101973.45
2017-10-14T11:39:00.800Z,101972.84
2017-10-14T11:41:28.403Z,101972.08
2017-10-14T11:43:55.901Z,101973.84
2017-10-14T11:46:23.408Z,101969.23
2017-10-14T11:48:50.971Z,101980.19
2017-10-14T11:51:18.467Z,101972.67
2017-10-14T11:53:46.022Z,101976.79
2017-10-14T11:56:13.528Z,101964.56
2017-10-14T11:58:41.023Z,101971.77
2017-10-14T12:01:08.549Z,101972.91
2017-10-14T12:03:36.044Z,101968.72
2017-10-14T12:06:03.584Z,101965.05
2017-10-14T12:08:31.189Z,101960.52
2017-10-14T12:10:58.811Z,101968.41
2017-10-14T12:13:26.356Z,101962.95
2017-10-14T12:15:53.852Z,101948.84
2017-10-14T12:18:21.347Z,101957.33
2017-10-14T12:20:48.944Z,101956.60
2017-10-14T12:23:16.433Z,101964.66
2017-10-14T12:25:43.947Z,101962.63
2017-10-14T12:28:11.614Z,101963.13
2017-10-14T12:30:39.112Z,101966.17
2017-10-14T12:33:06.606Z,101964.80
2017-10-14T12:35:34.130Z,101966.84
2017-10-14T12:38:01.656Z,101969.80
2017-10-14T12:40:29.167Z,101973.57
2017-10-14T12:42:56.703Z,101977.39
2017-10-14T12:45:24.225Z,101980.62
2017-10-14T12:47:51.759Z,101977.78
2017-10-14T12:50:19.333Z,101976.56
2017-10-14T12:52:46.886Z,101978.83
2017-10-14T12:55:14.408Z,101981.88
2017-10-14T12:57:41.928Z,101980.80
2017-10-14T13:00:09.469Z,101975.86
2017-10-14T13:02:37.024Z,101978.27
2017-10-14T13:05:04.526Z,101986.42
2017-10-14T13:07:32.056Z,101979.52
2017-10-14T13:09:59.554Z,101981.92
2017-10-14T13:12:27.062Z,101976.09
2017-10-14T13:14:54.597Z,101983.03
2017-10-14T13:17:22.189Z,101977.73
2017-10-14T13:19:49.746Z,101978.67
2017-10-14T13:22:17.409Z,101972.63
2017-10-14T13:24:44.904Z,101974.27
2017-10-14T13:27:12.428Z,101982.03
2017-10-14T13:29:39.952Z,101984.95
2017-10-14T13:32:07.466Z,101988.25
2017-10-14T13:34:35.012Z,101991.59
2017-10-14T13:37:02.504Z,101988.36
2017-10-14T13:39:29.999Z,101986.92
2017-10-14T13:41:57.538Z,101983.83
2017-10-14T13:44:25.035Z,101978.16
2017-10-14T13:46:52.583Z,101975.93
2017-10-14T13:49:20.111Z,101975.38
2017-10-14T13:51:47.695Z,101973.52
2017-10-14T13:54:15.213Z,101977.44
2017-10-14T13:56:42.817Z,101978.08
2017-10-14T13:59:10.358Z,101979.18
2017-10-14T14:01:37.942Z,101984.78
2017-10-14T14:04:05.432Z,101982.58
2017-10-14T14:06:33.178Z,101985.15
2017-10-14T14:09:00.672Z,101986.45
2017-10-14T14:11:28.173Z,101983.63
2017-10-14T14:13:55.706Z,101973.59
2017-10-14T14:16:23.215Z,101973.70
2017-10-14T14:18:50.749Z,101975.42
2017-10-14T14:21:18.308Z,101970.96
2017-10-14T14:23:45.813Z,101974.48
2017-10-14T14:26:13.322Z,101970.34
2017-10-14T14:28:40.891Z,101976.97
2017-10-14T14:31:08.382Z,101970.37
2017-10-14T14:33:35.890Z,101967.98
2017-10-14T14:36:03.410Z,101966.94
2017-10-14T14:38:30.948Z,101969.50
2017-10-14T14:40:58.503Z,101967.60
2017-10-14T14:43:26.002Z,101968.45
2017-10-14T14:45:53.646Z,101971.65
2017-10-14T14:48:21.147Z,101970.87
2017-10-14T14:50:48.640Z,101972.22
2017-10-14T14:53:16.173Z,101971.16
2017-10-14T14:55:43.734Z,101975.69
2017-10-14T14:58:11.240Z,101977.92
2017-10-14T15:00:38.743Z,101985.65
2017-10-14T15:03:06.279Z,101984.83
2017-10-14T15:05:33.894Z,101988.53
2017-10-14T15:08:01.401Z,101981.77
2017-10-14T15:10:28.962Z,101979.02
2017-10-14T15:12:56.455Z,101982.11
2017-10-14T15:15:23.950Z,101981.94
2017-10-14T15:17:51.560Z,101978.47
2017-10-14T15:20:19.126Z,101979.47
2017-10-14T15:22:46.689Z,101969.95
2017-10-14T15:25:14.244Z,101971.22
2017-10-14T15:27:41.748Z,101970.09
2017-10-14T15:30:09.279Z,101968.52
2017-10-14T15:32:36.820Z,101966.69
2017-10-14T15:35:04.340Z,101965.42
2017-10-14T15:37:31.837Z,101966.66
2017-10-14T15:39:59.362Z,101970.16
2017-10-14T15:42:26.871Z,101965.36
2017-10-14T15:44:54.435Z,101968.34
2017-10-14T15:47:21.968Z,101971.47
2017-10-14T15:49:49.516Z,101978.16
2017-10-14T15:52:17.017Z,101978.53
2017-10-14T15:54:44.522Z,101983.17
2017-10-14T15:57:12.064Z,101980.66
2017-10-14T15:59:39.569Z,101984.88
2017-10-14T16:02:07.071Z,101981.00
2017-10-14T16:04:34.642Z,101980.27
2017-10-14T16:07:02.232Z,101979.48
2017-10-14T16:09:29.869Z,101986.13
2017-10-14T16:11:57.472Z,101984.30
2017-10-14T16:14:24.979Z,101984.40
2017-10-14T16:16:52.484Z,101985.97
2017-10-14T16:19:20.018Z,101986.76
2017-10-14T16:21:47.524Z,101993.03
2017-10-14T16:24:15.069Z,101989.52
2017-10-14T16:26:42.620Z,101992.59
2017-10-14T16:29:10.107Z,101999.09
2017-10-14T16:31:37.615Z,102000.60
2017-10-14T16:34:05.131Z,102007.70
2017-10-14T16:36:32.629Z,102008.66
2017-10-14T16:39:00.164Z,102008.75
2017-10-14T16:41:27.656Z,102007.84
2017-10-14T16:43:55.151Z,102014.25
2017-10-14T16:46:22.676Z,102015.38
2017-10-14T16:48:50.255Z,102021.78
2017-10-14T16:51:17.852Z,102023.66
2017-10-14T16:53:45.385Z,102022.77
2017-10-14T16:56:13.009Z,102027.95
2017-10-14T16:58:40.525Z,102031.38
2017-10-14T17:01:08.013Z,102026.41
2017-10-14T17:03:35.621Z,102029.11
2017-10-14T17:06:03.136Z,102022.79
2017-10-14T17:08:30.742Z,102025.47
2017-10-14T17:10:58.236Z,102025.20
2017-10-14T17:13:25.733Z,102018.25
2017-10-14T17:15:53.325Z,102017.61
2017-10-14T17:18:20.885Z,102010.20
2017-10-14T17:20:48.390Z,102012.43
2017-10-14T17:23:16.037Z,102014.62
2017-10-14T17:25:43.614Z,102012.33
2017-10-14T17:28:11.160Z,102016.37
2017-10-14T17:30:38.658Z,102020.88
2017-10-14T17:33:06.270Z,102021.53
2017-10-14T17:35:33.788Z,102022.55
2017-10-14T17:38:01.435Z,102024.13
2017-10-14T17:40:28.935Z,102031.94
2017-10-14T17:42:56.451Z,102021.91
2017-10-14T17:45:23.995Z,102023.07
2017-10-14T17:47:51.530Z,102036.77
2017-10-14T17:50:19.111Z,102032.48
2017-10-14T17:52:46.643Z,102026.95
2017-10-14T17:55:14.134Z,102027.17
2017-10-14T17:57:41.872Z,102028.91
2017-10-14T18:00:09.398Z,102034.54
2017-10-14T18:02:36.998Z,102032.51
2017-10-14T18:05:04.501Z,102042.89
2017-10-14T18:07:32.037Z,102041.27
2017-10-14T18:09:59.530Z,102048.45
2017-10-14T18:12:27.071Z,102033.89
2017-10-14T18:14:54.723Z,102031.91
2017-10-14T18:17:22.489Z,102041.52
2017-10-14T18:19:50.137Z,102033.67
2017-10-14T18:22:17.673Z,102033.31
2017-10-14T18:24:45.163Z,102036.41
2017-10-14T18:27:12.661Z,102037.17
2017-10-14T18:29:40.224Z,102036.97
2017-10-14T18:32:07.734Z,102035.35
2017-10-14T18:34:35.233Z,102038.22
2017-10-14T18:37:02.772Z,102041.33
2017-10-14T18:39:30.298Z,102037.16
2017-10-14T18:41:57.783Z,102039.70
2017-10-14T18:44:25.322Z,102043.63
2017-10-14T18:46:52.867Z,102052.91
2017-10-14T18:49:20.543Z,102053.39
2017-10-14T18:51:48.063Z,102054.03
2017-10-14T18:54:15.565Z,102054.77
2017-10-14T18:56:43.128Z,102059.44
2017-10-14T18:59:10.627Z,102057.78
2017-10-14T19:01:38.145Z,102059.34
2017-10-14T19:04:05.667Z,102066.19
2017-10-14T19:06:33.202Z,102065.87
2017-10-14T19:09:00.693Z,102069.97
2017-10-14T19:11:28.182Z,102066.76
2017-10-14T19:13:55.715Z,102065.42
2017-10-14T19:16:23.298Z,102060.45
2017-10-14T19:18:50.792Z,102067.42
2017-10-14T19:21:18.337Z,102070.16
2017-10-14T19:23:45.829Z,102069.14
2017-10-14T19:26:13.331Z,102067.59
2017-10-14T19:28:40.880Z,102071.47
2017-10-14T19:31:08.387Z,102063.54
2017-10-14T19:33:35.875Z,102059.95
2017-10-14T19:36:03.399Z,102061.59
2017-10-14T19:38:30.917Z,102062.36
2017-10-14T19:40:58.514Z,102061.75
2017-10-14T19:43:26.006Z,102066.08
2017-10-14T19:45:53.583Z,102066.17
2017-10-14T19:48:21.120Z,102066.66
2017-10-14T19:50:48.618Z,102063.45
2017-10-14T19:53:16.128Z,102055.78
2017-10-14T19:55:43.662Z,102055.20
2017-10-14T19:58:11.154Z,102067.68
2017-10-14T20:00:38.656Z,102065.48
2017-10-14T20:03:06.247Z,102066.63
2017-10-14T20:05:33.736Z,102078.22
2017-10-14T20:08:01.294Z,102076.53
2017-10-14T20:10:28.805Z,102070.10
2017-10-14T20:12:56.310Z,102076.78
2017-10-14T20:15:23.885Z,102075.02
2017-10-14T20:17:51.378Z,102072.62
2017-10-14T20:20:18.868Z,102076.47
2017-10-14T20:22:46.426Z,102077.35
2017-10-14T20:25:14.019Z,102082.95
2017-10-14T20:27:41.571Z,102083.05
2017-10-14T20:30:09.107Z,102084.59
2017-10-14T20:32:36.596Z,102086.11
2017-10-14T20:35:04.142Z,102085.28
2017-10-14T20:37:31.640Z,102085.71
2017-10-14T20:40:00.098Z,102087.05
2017-10-14T20:42:27.754Z,102084.47
2017-10-14T20:44:55.253Z,102078.73
2017-10-14T20:47:22.760Z,102079.93
2017-10-14T20:49:50.307Z,102081.80
2017-10-14T20:52:17.898Z,102085.24
2017-10-14T20:54:45.392Z,102087.71
2017-10-14T20:57:12.932Z,102089.17
2017-10-14T20:59:40.434Z,102089.52
2017-10-14T21:02:07.932Z,102087.31
2017-10-14T21:04:35.480Z,102087.49
2017-10-14T21:07:02.976Z,102086.12
2017-10-14T21:09:30.471Z,102101.16
2017-10-14T21:11:58.055Z,102097.77
2017-10-14T21:14:25.608Z,102101.92
2017-10-14T21:16:53.195Z,102100.45
2017-10-14T21:19:20.697Z,102100.84
2017-10-14T21:21:48.221Z,102101.39
2017-10-14T21:24:15.774Z,102103.36
2017-10-14T21:26:43.310Z,102107.27
2017-10-14T21:29:10.808Z,102107.95
2017-10-14T21:31:38.310Z,102106.23
2017-10-14T21:34:05.854Z,102106.03
2017-10-14T21:36:33.351Z,102106.89
2017-10-14T21:39:00.880Z,102101.70
2017-10-14T21:41:28.481Z,102097.53
2017-10-14T21:43:55.976Z,102099.56
2017-10-14T21:46:23.579Z,102094.00
2017-10-14T21:48:51.071Z,102101.03
2017-10-14T21:51:18.564Z,102097.76
2017-10-14T21:53:46.171Z,102095.95
2017-10-14T21:56:13.676Z,102090.91
2017-10-14T21:58:41.190Z,102081.83
2017-10-14T22:01:08.733Z,102081.95
2017-10-14T22:03:36.313Z,102081.72
2017-10-14T22:06:03.802Z,102090.81
2017-10-14T22:08:31.332Z,102090.45
2017-10-14T22:10:58.884Z,102089.02
2017-10-14T22:13:26.389Z,102095.64
2017-10-14T22:15:53.886Z,102099.66
2017-10-14T22:18:21.432Z,102102.82
2017-10-14T22:20:48.952Z,102098.13
2017-10-14T22:23:16.446Z,102100.75
2017-10-14T22:25:44.024Z,102103.24
2017-10-14T22:28:11.529Z,102094.68
2017-10-14T22:30:39.025Z,102094.87
2017-10-14T22:33:06.556Z,102102.30
2017-10-14T22:35:34.087Z,102100.31
2017-10-14T22:38:01.584Z,102102.48
2017-10-14T22:40:29.076Z,102104.66
2017-10-14T22:42:56.608Z,102103.34
2017-10-14T22:45:24.100Z,102111.53
2017-10-14T22:47:51.649Z,102113.66
2017-10-14T22:50:19.224Z,102119.38
2017-10-14T22:52:46.730Z,102119.52
2017-10-14T22:55:14.270Z,102114.46
2017-10-14T22:57:41.767Z,102113.71
2017-10-14T23:00:09.261Z,102118.30
2017-10-14T23:02:36.797Z,102119.73
2017-10-14T23:05:04.369Z,102115.44
2017-10-14T23:07:31.856Z,102105.52
2017-10-14T23:09:59.386Z,102105.63
2017-10-14T23:12:26.922Z,102107.27
2017-10-14T23:14:54.447Z,102095.43
2017-10-14T23:17:21.938Z,102092.95
2017-10-14T23:19:49.495Z,102093.09
2017-10-14T23:22:17.031Z,102088.97
2017-10-14T23:24:44.629Z,102093.93
2017-10-14T23:27:12.132Z,102088.73
2017-10-14T23:29:39.835Z,102082.48
2017-10-14T23:32:07.327Z,102074.34
2017-10-14T23:34:34.824Z,102076.76
2017-10-14T23:37:02.344Z,102074.48
2017-10-14T23:39:29.875Z,102082.62
2017-10-14T23:41:57.412Z,102077.69
2017-10-14T23:44:24.995Z,102080.45
2017-10-14T23:46:52.487Z,102080.58
2017-10-14T23:49:20.216Z,102079.47
2017-10-14T23:51:47.776Z,102076.45
2017-10-14T23:54:15.269Z,102075.95
2017-10-14T23:56:42.824Z,102078.80
2017-10-14T23:59:10.316Z,102073.87
